Portada
METAR-TAF:

METAR-TAF

Aeroports :

Almeirim, Pará, Brasil

latitud: 00-53-23S, longitud: 052-36-08W, altitud: 206 m

Observació

L'informe es va fer fa 2 hores i 2 minuts, a les 19:00 UTC
Vent 5 kt del Sud-Est
Temperatura 34°C
Humitat 53%
Pressió 1008 hPa
Visibilitat 10 km o més
Núvols disperses a una alçada de 3000 ft

METAR: SBMD 131900Z 13005KT 9999 SCT030 34/23 Q1008

Hora: 18:02 (21:02 UTC)


TAF: manca

Observacions i pronòstics meteorològics de més de 4000 aeroports (METAR i TAF).

Les estacions disponibles són els punts grocs i vermells al mapa.

Posi el ratolí al punt desitjat per veure el nom de l'estació.

Feu clic per veure les observacions i els pronòstics meteorològics.

Per canviar el mapa: feu clic els botons verds amb una creu de color negre per apropar; al botó verd amb un guió per allunyar la imatge; o en les fletxes verdes per a mapes adjacents.


METAR-TAF: